Latest Coastal Weather Observations for King Island Airport

IDV60701

Issued at 9:35 am EST Wednesday 3 September 2014 (issued every 10 minutes, with the page automatically refreshed every 10 minutes)

About coastal observations | Map of coastal stations | Coastal observations for VIC | Marine services | Other Formats
Station Details ID: 098017 Name: KING ISLAND AIRPORT Lat: -39.88 Lon: 143.88 Height: 37.0 m
Data from the previous 72 hours. | See also: Recent months at King Island Airport
Date/Time
EST
Temp

°C
Wind Pressure Rain
since 9am
mm
Weather Cloud Vis
km
Sea
Height
m
Swell
Dir
 
Speed
knots
Gust
knots
hPa Trend Height
m
Period
s
Dir
03/09:30am 11.3 SW 8 11 1023.7 - 0.0 - Partly cloudy 10 - - - -
03/09:00am 10.9 SSW 9 12 1023.7 - 0.2 - Partly cloudy 10 - - - -
03/08:30am 11.0 SSW 7 10 1023.7 - 0.2 - - 10 - - - -
03/08:00am 8.7 CALM 0 0 1023.7 - 0.2 - Partly cloudy 10 - - - -
03/07:30am 8.8 S 2 4 1023.6 - 0.2 - Partly cloudy 10 - - - -
03/07:00am 7.0 S 4 5 1023.3 - 0.2 - Partly cloudy 10 - - - -
03/06:30am 8.5 SSW 6 7 1023.2 - 0.2 - Partly cloudy 10 - - - -
03/06:00am 8.7 S 5 6 1023.1 - 0.2 - Cloudy 10 - - - -
03/05:30am 8.5 SSE 4 5 1022.9 - 0.2 - Partly cloudy 10 - - - -
03/05:00am 8.8 S 5 7 1022.8 - 0.2 - Partly cloudy 10 - - - -
03/04:30am 8.4 SSE 5 6 1022.9 - 0.2 - Cloudy 10 - - - -
03/04:00am 8.5 S 6 9 1023.0 - 0.2 - Partly cloudy 10 - - - -
03/03:30am 9.1 SSW 7 9 1023.1 - 0.2 - Partly cloudy 10 - - - -
03/03:00am 9.0 SSW 8 10 1023.2 - 0.2 - Partly cloudy 10 - - - -
03/02:30am 8.4 SSW 8 10 1023.4 - 0.2 - Partly cloudy 10 - - - -
03/02:00am 9.6 SSW 12 16 1023.6 - 0.2 - Partly cloudy 10 - - - -
03/01:30am 8.8 SSW 8 11 1023.8 - 0.2 - Partly cloudy 10 - - - -
03/01:00am 8.4 SSW 7 8 1023.9 - 0.2 - Partly cloudy 10 - - - -
03/12:30am 8.3 S 5 7 1023.9 - 0.2 - Partly cloudy 10 - - - -
03/12:00am 9.0 S 8 11 1023.8 - 0.2 Drizzle Partly cloudy 10 - - - -
 
Date/Time
EST
Temp

°C
Wind Pressure Rain
since 9am
mm
Weather Cloud Vis
km
Sea
Height
m
Swell
Dir
 
Speed
knots
Gust
knots
hPa Trend Height
m
Period
s
Dir
02/11:30pm 8.5 S 5 7 1023.8 - 0.2 - Partly cloudy 10 - - - -
02/11:00pm 9.5 S 7 12 1024.0 - 0.2 - Partly cloudy 10 - - - -
02/10:30pm 9.4 S 6 9 1024.1 - 0.2 - Cloudy 10 - - - -
02/10:00pm 9.2 SSE 4 5 1024.1 - 0.2 - Cloudy 10 - - - -
02/09:30pm 9.9 SSW 12 16 1024.0 - 0.2 - Cloudy 10 - - - -
02/09:00pm 9.7 SW 13 18 1023.9 - 0.2 - Cloudy 10 - - - -
02/08:30pm 9.7 SSW 11 15 1023.8 - 0.2 - Cloudy 10 - - - -
02/08:00pm 9.5 SSW 12 16 1023.6 - 0.2 - Cloudy 10 - - - -
02/07:30pm 9.3 SSW 11 15 1023.4 - 0.2 - Partly cloudy 10 - - - -
02/07:00pm 9.2 SSW 14 17 1023.2 - 0.2 - Partly cloudy 10 - - - -
02/06:30pm 9.2 S 6 9 1022.8 - 0.2 - Partly cloudy 10 - - - -
02/06:00pm 8.9 S 8 13 1022.6 - 0.2 Rain Mostly cloudy 10 - - - -
02/05:34pm 10.0 SSW 16 26 1022.5 - 0.0 - Partly cloudy 10 - - - -
02/05:30pm 10.5 SSW 15 21 1022.4 - 0.0 - Partly cloudy 10 - - - -
02/05:00pm 10.3 SSW 17 22 1022.1 - 0.0 - Partly cloudy 10 - - - -
02/04:46pm 11.3 SSW 16 26 1021.8 - 0.0 - Partly cloudy 10 - - - -
02/04:30pm 10.9 SSW 15 21 1021.6 - 0.0 - Partly cloudy 10 - - - -
02/04:00pm 11.4 SSW 16 20 1021.2 - 0.0 - Partly cloudy 10 - - - -
02/03:30pm 11.7 SSW 17 22 1021.1 - 0.0 - Partly cloudy 10 - - - -
02/03:00pm 12.2 SSW 17 22 1020.9 - 0.0 - Mostly clear 10 - - - -
02/02:30pm 12.3 SSW 17 22 1020.8 - 0.0 - Partly cloudy 10 - - - -
02/02:00pm 12.2 SSW 17 22 1020.7 - 0.0 - Partly cloudy 10 - - - -
02/01:30pm 12.5 SSW 19 23 1020.6 - 0.0 - Partly cloudy 10 - - - -
02/01:00pm 12.6 SSW 17 25 1020.6 - 0.0 - Partly cloudy 10 - - - -
02/12:30pm 12.3 SSW 17 23 1020.6 - 0.0 - Partly cloudy 10 - - - -
02/12:00pm 12.5 SSW 17 26 1020.7 - 0.0 - Partly cloudy 10 - - - -
02/11:52am 12.4 SSW 15 26 1020.6 - 0.0 - Partly cloudy 10 - - - -
02/11:30am 11.7 SSW 17 24 1020.6 - 0.0 - Partly cloudy 10 - - - -
02/11:00am 12.2 SSW 17 21 1020.6 - 0.0 - Partly cloudy 10 - - - -
02/10:30am 12.0 S 15 22 1020.5 - 0.0 - Partly cloudy 10 - - - -
02/10:00am 12.3 S 14 21 1020.2 - 0.0 - Partly cloudy 10 - - - -
02/09:30am 12.6 S 10 14 1019.9 - 0.0 - Partly cloudy 10 - - - -
02/09:00am 10.6 S 9 14 1019.8 - 2.4 Showers Partly cloudy 10 - - - -
02/08:30am 10.4 S 6 9 1019.5 - 2.4 - - 10 - - - -
02/08:00am 9.7 S 7 12 1019.0 - 2.4 - Partly cloudy 10 - - - -
02/07:30am 8.9 SSE 8 12 1018.5 - 2.4 - Partly cloudy 10 - - - -
02/07:00am 8.9 SSE 10 15 1018.0 - 2.4 - Partly cloudy 10 - - - -
02/06:30am 8.8 SSE 8 12 1017.5 - 2.4 - Partly cloudy 10 - - - -
02/06:00am 8.5 SSE 8 11 1017.0 - 2.4 - Mostly cloudy 10 - - - -
02/05:30am 8.2 SSE 6 9 1016.4 - 2.4 - Partly cloudy 10 - - - -
02/05:00am 7.7 S 6 9 1015.8 - 2.4 - - 10 - - - -
02/04:30am 8.7 S 11 16 1015.4 - 2.4 - Partly cloudy 10 - - - -
02/04:00am 9.9 S 10 15 1014.8 - 2.4 - - 10 - - - -
02/03:30am 9.4 S 7 14 1014.8 - 2.4 - Partly cloudy 10 - - - -
02/03:00am 10.0 SW 15 20 1014.5 - 2.4 - Mostly cloudy 10 - - - -
02/02:30am 9.3 S 9 15 1014.3 - 2.4 - Partly cloudy 10 - - - -
02/02:00am 10.1 S 10 16 1014.1 - 2.4 - Partly cloudy 10 - - - -
02/01:30am 9.6 S 9 15 1014.0 - 2.4 - - 10 - - - -
02/01:00am 8.2 S 6 8 1013.8 - 2.4 - Partly cloudy 10 - - - -
02/12:30am 9.0 S 7 9 1013.6 - 2.4 - Partly cloudy 10 - - - -
02/12:00am 10.1 SSW 14 18 1013.5 - 2.4 - Mostly cloudy 10 - - - -
 
Date/Time
EST
Temp

°C
Wind Pressure Rain
since 9am
mm
Weather Cloud Vis
km
Sea
Height
m
Swell
Dir
 
Speed
knots
Gust
knots
hPa Trend Height
m
Period
s
Dir
01/11:44pm 9.8 SSW 16 21 1013.4 - 2.4 - Partly cloudy 10 - - - -
01/11:30pm 8.4 S 5 7 1013.3 - 2.4 - - 10 - - - -
01/11:00pm 9.5 S 6 10 1013.1 - 2.4 - Partly cloudy 10 - - - -
01/10:30pm 9.2 S 6 8 1012.7 - 2.4 - Partly cloudy 10 - - - -
01/10:00pm 9.5 S 6 8 1012.5 - 2.4 - Partly cloudy 10 - - - -
01/09:30pm 9.7 S 10 16 1012.2 - 2.4 - - 10 - - - -
01/09:00pm 10.6 SSW 11 15 1011.9 - 2.4 - Partly cloudy 10 - - - -
01/08:30pm 10.8 SSW 9 12 1011.6 - 2.4 - - 10 - - - -
01/08:00pm 10.7 SW 10 13 1011.3 - 2.4 - Partly cloudy 10 - - - -
01/07:30pm 10.4 SW 9 14 1011.0 - 2.4 - - 10 - - - -
01/07:00pm 10.9 SSW 9 13 1010.6 - 2.4 - - 10 - - - -
01/06:30pm 10.7 SW 8 9 1010.3 - 2.4 - - 10 - - - -
01/06:00pm 11.1 SW 10 15 1009.9 - 2.4 - Mostly cloudy 10 - - - -
01/05:30pm 11.7 SSW 13 18 1009.3 - 2.4 - - 10 - - - -
01/05:00pm 12.0 SSW 13 16 1008.9 - 2.4 - Partly cloudy 10 - - - -
01/04:30pm 12.5 SW 12 17 1008.7 - 2.4 - Partly cloudy 10 - - - -
01/04:00pm 12.8 SSW 16 21 1008.5 - 2.4 - Partly cloudy 10 - - - -
01/03:30pm 12.8 SW 16 22 1008.1 - 2.4 - Partly cloudy 10 - - - -
01/03:00pm 12.3 SSW 15 21 1007.8 - 2.4 - Cloudy 10 - - - -
01/02:30pm 13.0 SW 18 24 1007.4 - 2.4 - Partly cloudy 10 - - - -
01/02:00pm 12.9 SW 17 22 1007.1 - 2.4 - Partly cloudy 10 - - - -
01/01:30pm 12.4 SW 16 21 1007.3 - 2.4 - Partly cloudy 10 - - - -
01/01:00pm 11.7 SW 15 27 1007.3 - 2.4 - Partly cloudy 10 - - - -
01/12:30pm 10.9 SW 17 22 1007.2 - 2.4 - Partly cloudy 10 - - - -
01/12:22pm 11.0 SW 19 24 1007.2 - 2.4 - Partly cloudy 10 - - - -
01/12:17pm 11.3 SW 19 26 1007.2 - 2.4 - Partly cloudy 10 - - - -
01/12:00pm 10.8 SW 19 28 1007.0 - 2.2 Showers Cloudy 5 - - - -
01/11:59am 10.8 SW 18 28 1007.0 - 2.2 - Partly cloudy 5 - - - -
01/11:56am 10.8 SW 18 28 1007.0 - 2.2 - Partly cloudy 6 - - - -
01/11:53am 11.1 SW 17 28 1007.0 - 2.0 - Partly cloudy 7 - - - -
01/11:30am 11.0 SSW 17 24 1006.9 - 2.0 - Partly cloudy 6 - - - -
01/11:23am 11.5 SW 17 22 1006.7 - 2.0 - Partly cloudy 10 - - - -
01/11:00am 11.3 SSW 20 27 1006.5 - 1.8 - Partly cloudy 10 - - - -
01/10:44am 11.7 SSW 17 21 1006.1 - 1.8 - Partly cloudy 10 - - - -
01/10:41am 11.7 SSW 17 21 1006.1 - 1.8 - Partly cloudy 10 - - - -
01/10:33am 11.8 SSW 17 21 1006.1 - 1.8 - Partly cloudy 5 - - - -
01/10:30am 11.9 SSW 18 21 1006.0 - 1.8 - Partly cloudy 7 - - - -
01/10:27am 11.9 SW 19 22 1006.0 - 1.6 - Partly cloudy 10 - - - -
01/10:21am 12.4 WSW 7 11 1006.0 - 1.4 - Partly cloudy 10 - - - -
01/10:00am 11.9 SW 10 15 1005.8 - 1.0 - Partly cloudy 5 - - - -
01/09:59am 12.0 SW 11 16 1005.8 - 1.0 - Partly cloudy 5 - - - -
01/09:30am 13.0 WNW 15 19 1005.7 - 0.4 - Partly cloudy 10 - - - -
01/09:00am 12.8 NW 15 17 1005.7 - 0.8 Rain Cloudy 10 - - - -
01/08:30am 12.3 WNW 13 18 1005.6 - 0.6 - Partly cloudy 10 - - - -
01/08:00am 12.7 NW 16 21 1005.5 - 0.4 - Partly cloudy 10 - - - -
01/07:59am 12.7 NW 16 21 1005.4 - 0.4 - Partly cloudy 10 - - - -
01/07:30am 12.9 NNW 17 20 1005.2 - 0.2 - Partly cloudy 10 - - - -
01/07:16am 12.8 NNW 16 21 1005.1 - 0.2 - Partly cloudy 10 - - - -
01/07:00am 12.7 NNW 15 20 1005.0 - 0.2 - Partly cloudy 10 - - - -
01/06:30am 12.8 NNW 17 25 1005.0 - 0.0 - Partly cloudy 10 - - - -
01/06:00am 13.1 NNW 19 23 1005.0 - 0.0 Drizzle Cloudy 10 - - - -
01/05:30am 13.6 NNW 19 25 1005.3 - 0.0 - Partly cloudy 10 - - - -
01/05:07am 13.9 NNW 18 28 1005.4 - 0.0 - Partly cloudy 10 - - - -
01/05:00am 13.7 NNW 16 22 1005.5 - 0.0 - Partly cloudy 10 - - - -
01/04:47am 13.2 N 15 21 1005.4 - 0.0 - Partly cloudy 10 - - - -
01/04:30am 12.7 N 5 6 1005.4 - 0.0 - Partly cloudy 10 - - - -
01/04:00am 12.8 N 5 5 1005.8 - 0.0 - Cloudy 9 - - - -
01/03:30am 12.7 NNW 2 5 1006.2 - 0.0 - Partly cloudy 10 - - - -
01/03:00am 12.6 CALM 0 0 1005.9 - 0.0 - Cloudy 10 - - - -
01/02:30am 12.9 NNW 1 4 1006.5 - 0.0 - Cloudy 10 - - - -
01/02:00am 12.3 E 5 7 1006.2 - 0.0 - Cloudy 10 - - - -
01/01:30am 13.1 N 2 4 1007.1 - 0.0 - Partly cloudy 10 - - - -
01/01:00am 13.6 N 4 5 1006.9 - 0.0 - Partly cloudy 10 - - - -
01/12:30am 14.2 N 7 9 1007.4 - 0.0 - Partly cloudy 10 - - - -
01/12:00am 14.4 NNW 12 16 1007.9 - 0.0 - Mostly cloudy 10 - - - -
 
Date/Time
EST
Temp

°C
Wind Pressure Rain
since 9am
mm
Weather Cloud Vis
km
Sea
Height
m
Swell
Dir
 
Speed
knots
Gust
knots
hPa Trend Height
m
Period
s
Dir
31/11:30pm 15.5 N 12 18 1007.6 - 0.0 - Cloudy 10 - - - -
31/11:00pm 15.5 N 10 14 1008.0 - 0.0 - Partly cloudy 10 - - - -
31/10:30pm 15.3 NNE 14 17 1008.2 - 0.0 - Partly cloudy 10 - - - -
31/10:00pm 15.3 NNE 15 20 1008.4 - 0.0 - Partly cloudy 10 - - - -
31/09:30pm 15.5 NNE 17 21 1008.7 - 0.0 - Partly cloudy 10 - - - -
31/09:00pm 15.8 NNE 16 19 1008.9 - 0.0 - Cloudy 10 - - - -
31/08:30pm 15.9 NNE 13 17 1009.2 - 0.0 - Partly cloudy 10 - - - -
31/08:00pm 16.1 NNE 9 14 1009.8 - 0.0 - Partly cloudy 10 - - - -
31/07:30pm 16.8 N 13 18 1009.8 - 0.0 - Partly cloudy 10 - - - -
31/07:00pm 16.1 NNE 10 14 1009.8 - 0.0 - Partly cloudy 10 - - - -
31/06:30pm 15.9 NNE 10 12 1009.9 - 0.0 - - 10 - - - -
31/06:00pm 16.8 NNE 14 18 1010.0 - 0.0 - Mostly cloudy 10 - - - -
31/05:30pm 16.6 N 13 17 1010.2 - 0.0 - - 10 - - - -
31/05:00pm 16.7 N 14 18 1010.2 - 0.0 - - 10 - - - -
31/04:30pm 17.6 N 14 19 1010.3 - 0.0 - - 10 - - - -
31/04:00pm 17.9 N 14 18 1010.3 - 0.0 - - 10 - - - -
31/03:30pm 17.9 N 15 20 1010.6 - 0.0 - - 10 - - - -
31/03:00pm 17.8 N 14 19 1010.8 - 0.0 - Mostly clear 10 - - - -
31/02:30pm 18.6 N 17 22 1011.3 - 0.0 - - 10 - - - -
31/02:00pm 18.7 N 16 20 1011.7 - 0.0 - - 10 - - - -
31/01:30pm 18.9 N 15 19 1012.3 - 0.0 - - 10 - - - -
31/01:00pm 18.1 N 16 20 1012.8 - 0.0 - - 10 - - - -
31/12:30pm 18.2 N 15 21 1013.4 - 0.0 - - 10 - - - -
31/12:00pm 17.7 N 14 19 1013.9 - 0.0 - Mostly clear 10 - - - -
31/11:30am 17.1 N 15 19 1014.4 - 0.0 - - 10 - - - -
31/11:00am 16.5 N 15 18 1014.8 - 0.0 - - 10 - - - -
31/10:30am 17.0 N 13 17 1015.0 - 0.0 - - 10 - - - -
31/10:00am 17.0 N 14 18 1015.5 - 0.0 - - 10 - - - -

Other Formats:

Comma delimited format used in spreadsheet applications
http://www.bom.gov.au/fwo/IDV60701/IDV60701.94850.axf

JavaScript Object Notation format (JSON) in row-major order
http://www.bom.gov.au/fwo/IDV60701/IDV60701.94850.json